Time;durP1;ratioP1;P1;durP2;ratioP2;P2;SDS_P1;SDS_P2;PMS_P1;PMS_P2;Temp;Humidity;BMP_temperature;BMP_pressure;BME280_temperature;BME280_humidity;BME280_pressure;Samples;Min_cycle;Max_cycle;Signal;HPM_P1;HPM_P2
2023/03/28 00:00:24;;;;;;;33.67;15.13;;;;;;;4.41;60.44;101076.91;4952067;27;20053;-59
2023/03/28 00:02:56;;;;;;;31.20;15.45;;;;;;;4.34;60.67;101075.88;4946856;27;20070;-61
2023/03/28 00:05:28;;;;;;;34.45;14.95;;;;;;;4.39;60.22;101068.22;4948153;27;20046;-62
2023/03/28 00:07:59;;;;;;;28.88;16.35;;;;;;;4.43;60.44;101080.41;4948530;27;20670;-61
2023/03/28 00:10:30;;;;;;;33.58;15.95;;;;;;;4.60;60.96;101084.22;4947057;27;20052;-61
2023/03/28 00:13:00;;;;;;;37.15;17.80;;;;;;;4.66;60.53;101053.28;4948996;27;20082;-63
2023/03/28 00:15:31;;;;;;;39.50;19.77;;;;;;;4.90;60.08;101085.69;4946986;27;20083;-60
2023/03/28 00:18:04;;;;;;;37.30;20.15;;;;;;;4.97;60.23;101084.97;4946996;27;20052;-60
2023/03/28 00:20:39;;;;;;;39.17;20.67;;;;;;;5.05;60.29;101072.19;4937942;27;20051;-59
2023/03/28 00:23:10;;;;;;;37.03;20.73;;;;;;;5.23;60.57;101079.41;4948392;27;20051;-61
2023/03/28 00:25:42;;;;;;;39.80;21.25;;;;;;;5.16;59.78;101042.16;4948410;27;20051;-60
2023/03/28 00:28:12;;;;;;;41.13;22.30;;;;;;;5.33;59.78;101078.72;4947526;27;20049;-57
2023/03/28 00:30:43;;;;;;;45.97;23.20;;;;;;;5.45;59.84;101083.28;4954248;27;20048;-60
2023/03/28 00:33:15;;;;;;;44.17;22.20;;;;;;;5.53;59.09;101082.53;4951431;27;20049;-61
2023/03/28 00:35:46;;;;;;;37.60;21.17;;;;;;;5.60;59.03;101079.22;4946789;28;20048;-60
2023/03/28 00:38:16;;;;;;;41.38;20.13;;;;;;;5.78;59.37;101095.94;4947136;27;20343;-58
2023/03/28 00:40:48;;;;;;;41.38;21.10;;;;;;;5.94;58.98;101092.78;4945968;27;20047;-58
2023/03/28 00:43:33;;;;;;;40.80;23.08;;;;;;;6.01;58.60;101092.00;4946070;27;20046;-60
2023/03/28 00:46:04;;;;;;;47.33;24.15;;;;;;;6.10;58.04;101106.00;4939871;27;20061;-59
2023/03/28 00:48:43;;;;;;;40.30;22.10;;;;;;;6.20;58.67;101097.50;4946952;27;20191;-62
2023/03/28 00:51:19;;;;;;;52.35;25.63;;;;;;;6.26;58.19;101097.56;4941183;27;20688;-63
2023/03/28 00:53:52;;;;;;;56.75;26.77;;;;;;;6.16;57.85;101060.22;4947364;27;20059;-60
2023/03/28 00:56:26;;;;;;;49.35;25.77;;;;;;;6.39;58.49;101094.31;4947026;27;20131;-60
2023/03/28 00:58:58;;;;;;;54.38;28.67;;;;;;;6.33;58.31;101088.16;4947795;27;20103;-56
2023/03/28 01:01:48;;;;;;;55.42;27.80;;;;;;;6.44;59.16;101095.25;4946826;27;20047;-63
2023/03/28 01:04:23;;;;;;;61.08;29.90;;;;;;;6.58;58.43;101084.16;4946523;27;20056;-62
2023/03/28 01:06:57;;;;;;;51.80;28.80;;;;;;;6.63;58.44;101092.88;4941146;28;20048;-56
2023/03/28 01:09:28;;;;;;;57.45;29.60;;;;;;;6.71;58.52;101088.66;4945954;28;20047;-61
2023/03/28 01:12:00;;;;;;;64.45;29.48;;;;;;;6.90;58.81;101088.03;4946985;28;20151;-60
2023/03/28 01:14:33;;;;;;;52.33;27.30;;;;;;;7.01;58.15;101092.47;4946404;28;20122;-62
2023/03/28 01:17:04;;;;;;;50.22;26.25;;;;;;;7.00;57.63;101088.16;4941605;28;20053;-62
2023/03/28 01:19:50;;;;;;;53.55;27.52;;;;;;;6.87;57.70;101088.00;4949225;28;20435;-59
2023/03/28 01:22:49;;;;;;;53.03;27.42;;;;;;;6.82;58.15;101084.47;4936704;28;20051;-59
2023/03/28 01:25:52;;;;;;;48.97;25.02;;;;;;;7.11;58.86;101086.53;4936902;28;20045;-62
2023/03/28 01:28:42;;;;;;;41.85;23.42;;;;;;;7.18;58.15;101072.75;4933638;28;20071;-62
2023/03/28 01:31:43;;;;;;;50.70;24.95;;;;;;;7.44;57.58;101085.13;4934199;28;20198;-61
2023/03/28 01:34:51;;;;;;;49.92;24.95;;;;;;;7.58;57.66;101083.53;4926942;28;20044;-61
2023/03/28 01:37:30;;;;;;;50.10;22.90;;;;;;;7.74;56.95;101090.63;4904728;28;20117;-62
2023/03/28 01:40:24;;;;;;;44.88;22.38;;;;;;;7.72;56.62;101087.13;4936279;28;20051;-62
2023/03/28 01:43:06;;;;;;;33.63;17.65;;;;;;;7.60;55.85;101050.63;4924598;28;20043;-62
2023/03/28 01:45:47;;;;;;;39.80;19.55;;;;;;;7.88;55.54;101093.31;4935923;28;20058;-62
2023/03/28 01:48:28;;;;;;;32.85;16.90;;;;;;;7.95;53.95;101084.72;4937536;28;20040;-61
2023/03/28 01:51:08;;;;;;;33.92;16.90;;;;;;;8.07;54.14;101077.88;4935056;28;20051;-62
2023/03/28 01:53:46;;;;;;;29.95;14.20;;;;;;;8.13;52.54;101077.88;4935294;28;20405;-63
2023/03/28 01:56:26;;;;;;;22.85;11.30;;;;;;;8.14;52.92;101072.72;4936775;28;20052;-62
2023/03/28 01:59:03;;;;;;;17.00;7.85;;;;;;;8.26;50.61;101068.41;4936927;28;20056;-61
2023/03/28 02:01:40;;;;;;;14.57;8.18;;;;;;;8.42;48.71;101078.97;4939480;28;20479;-62
2023/03/28 02:04:14;;;;;;;17.98;8.57;;;;;;;8.19;49.18;101013.72;4946242;28;20439;-62
2023/03/28 02:06:52;;;;;;;17.15;9.05;;;;;;;8.78;48.58;101073.94;4935796;28;20055;-62
2023/03/28 02:09:26;;;;;;;18.63;8.82;;;;;;;8.80;47.96;101074.81;4945765;28;20355;-63
2023/03/28 02:12:01;;;;;;;20.27;7.65;;;;;;;8.77;47.34;101072.19;4934637;28;20044;-63
2023/03/28 02:14:38;;;;;;;15.75;7.72;;;;;;;8.66;46.68;101084.28;4946254;28;20164;-59
2023/03/28 02:17:15;;;;;;;14.80;7.50;;;;;;;8.34;46.96;101004.25;4935893;28;20059;-62
2023/03/28 02:19:51;;;;;;;16.58;7.68;;;;;;;8.83;45.31;101074.81;4935091;28;20055;-60
2023/03/28 02:22:26;;;;;;;19.10;7.40;;;;;;;8.83;46.12;101067.84;4946420;28;20554;-62
2023/03/28 02:24:58;;;;;;;12.60;6.40;;;;;;;8.82;45.24;101075.69;4936150;28;20054;-61
2023/03/28 02:27:29;;;;;;;12.35;6.72;;;;;;;8.51;45.02;101007.84;4948855;27;20394;-63
2023/03/28 02:30:00;;;;;;;10.40;5.80;;;;;;;9.04;45.67;101072.28;4950257;27;20135;-62
2023/03/28 02:32:32;;;;;;;16.20;6.65;;;;;;;9.06;43.45;101065.34;4949405;27;20035;-59
2023/03/28 02:35:05;;;;;;;22.33;8.23;;;;;;;9.22;45.47;101060.16;4945271;27;20082;-62
2023/03/28 02:37:48;;;;;;;28.67;20.48;;;;;;;9.32;43.71;101061.91;4949573;27;20442;-63
2023/03/28 02:40:37;;;;;;;14.77;6.70;;;;;;;9.41;44.04;101061.03;4938876;27;20062;-61
2023/03/28 02:43:27;;;;;;;14.63;5.65;;;;;;;9.33;41.49;101058.44;4939744;27;20055;-63
2023/03/28 02:46:19;;;;;;;11.02;5.45;;;;;;;9.37;42.73;101049.75;4938418;27;20085;-63
2023/03/28 02:49:11;;;;;;;17.15;6.38;;;;;;;9.42;43.39;101042.81;4938020;27;20053;-59
2023/03/28 02:51:50;;;;;;;15.85;5.78;;;;;;;9.55;42.15;101053.25;4937224;27;20474;-63
2023/03/28 02:54:31;;;;;;;11.18;5.47;;;;;;;9.40;40.86;101054.97;4937515;27;21076;-59
2023/03/28 02:57:09;;;;;;;16.75;5.65;;;;;;;9.33;41.81;101042.78;4937827;27;20056;-63
2023/03/28 02:59:44;;;;;;;12.90;5.47;;;;;;;9.29;40.13;101035.84;4938524;27;20112;-63
2023/03/28 03:02:19;;;;;;;12.88;5.05;;;;;;;9.35;40.18;101048.88;4936987;27;20051;-61
2023/03/28 03:04:50;;;;;;;6.72;4.20;;;;;;;9.47;40.25;101046.28;4949264;27;20139;-62
2023/03/28 03:07:21;;;;;;;9.63;4.43;;;;;;;9.47;38.49;101056.72;4949787;27;20059;-61
2023/03/28 03:09:52;;;;;;;6.50;3.75;;;;;;;9.60;38.26;101054.13;4947984;27;20058;-62
2023/03/28 03:12:25;;;;;;;7.53;3.80;;;;;;;9.57;37.76;101041.06;4946667;27;20060;-62
2023/03/28 03:14:59;;;;;;;7.45;3.90;;;;;;;9.63;37.56;101046.28;4947814;27;20059;-62
2023/03/28 03:17:30;;;;;;;9.10;3.70;;;;;;;9.66;36.43;101046.28;4947375;27;20143;-60
2023/03/28 03:20:05;;;;;;;6.05;3.05;;;;;;;9.68;34.14;101040.22;4948396;27;20511;-61
2023/03/28 03:22:36;;;;;;;10.73;3.30;;;;;;;9.57;35.33;101041.06;4937619;27;20055;-61
2023/03/28 03:25:08;;;;;;;7.80;2.92;;;;;;;9.42;34.93;101027.16;4948310;27;20054;-60
2023/03/28 03:27:43;;;;;;;4.45;2.65;;;;;;;9.40;35.55;101035.84;4948342;27;20070;-62
2023/03/28 03:30:14;;;;;;;5.82;2.85;;;;;;;9.45;36.38;101032.34;4942741;27;20052;-63
2023/03/28 03:32:44;;;;;;;5.32;2.47;;;;;;;9.44;34.46;101030.63;4950814;27;20053;-62
2023/03/28 03:35:15;;;;;;;5.50;2.67;;;;;;;9.48;34.73;101032.38;4947489;27;20054;-60
2023/03/28 03:37:46;;;;;;;5.18;2.70;;;;;;;9.57;34.66;101036.72;4947865;27;20373;-61
2023/03/28 03:40:17;;;;;;;6.82;2.53;;;;;;;9.59;34.45;101028.91;4949415;27;20462;-60
2023/03/28 03:42:49;;;;;;;6.50;2.80;;;;;;;9.46;33.83;101028.91;4947357;27;20051;-61
2023/03/28 03:45:20;;;;;;;7.00;2.90;;;;;;;9.46;34.37;101022.78;4948759;27;20065;-61
2023/03/28 03:47:51;;;;;;;7.50;2.90;;;;;;;9.48;34.82;101021.06;4947802;27;20802;-62
2023/03/28 03:50:22;;;;;;;5.20;2.40;;;;;;;9.72;34.24;101021.06;4947564;27;20047;-62
2023/03/28 03:52:52;;;;;;;4.38;2.85;;;;;;;9.84;33.70;101024.53;4948072;27;20052;-60
2023/03/28 03:55:25;;;;;;;5.88;2.92;;;;;;;9.89;33.91;101028.88;4948004;27;20183;-61
2023/03/28 03:57:57;;;;;;;5.45;2.72;;;;;;;9.71;31.24;100998.44;4947218;27;20386;-59
2023/03/28 04:00:28;;;;;;;5.00;2.47;;;;;;;9.42;33.18;101003.66;4948093;27;20046;-62
2023/03/28 04:02:59;;;;;;;12.23;3.25;;;;;;;9.43;33.83;101021.06;4946859;27;20059;-61
2023/03/28 04:05:30;;;;;;;3.60;2.33;;;;;;;9.39;33.22;101021.94;4947868;27;20047;-61
2023/03/28 04:08:00;;;;;;;4.78;2.10;;;;;;;9.40;33.14;101018.44;4946937;27;20062;-62
2023/03/28 04:10:33;;;;;;;3.67;2.67;;;;;;;9.43;33.58;101023.66;4948401;27;20111;-60
2023/03/28 04:13:06;;;;;;;4.07;2.30;;;;;;;9.39;32.04;101016.72;4940204;27;20179;-62
2023/03/28 04:15:36;;;;;;;4.22;2.30;;;;;;;8.61;32.00;100926.25;4947313;27;20062;-61
2023/03/28 04:18:07;;;;;;;6.55;2.60;;;;;;;9.10;31.94;101013.22;4948300;27;20058;-61
2023/03/28 04:20:39;;;;;;;12.68;2.63;;;;;;;8.97;32.47;101015.78;4946902;27;20451;-61
2023/03/28 04:23:10;;;;;;;9.75;2.25;;;;;;;8.95;33.19;101001.88;4946913;27;20059;-60
2023/03/28 04:25:41;;;;;;;7.85;2.75;;;;;;;9.07;31.59;101009.72;4948071;27;20051;-60
2023/03/28 04:28:15;;;;;;;8.60;2.72;;;;;;;8.94;32.40;101012.31;4946948;27;20108;-61
2023/03/28 04:30:45;;;;;;;8.60;3.15;;;;;;;8.97;32.47;101007.97;4935791;28;20150;-58
2023/03/28 04:33:16;;;;;;;5.85;2.45;;;;;;;8.97;33.15;100994.06;4947058;27;20482;-61
2023/03/28 04:35:47;;;;;;;5.85;2.60;;;;;;;9.13;33.30;101008.00;4947009;27;20055;-61
2023/03/28 04:38:18;;;;;;;4.47;2.65;;;;;;;9.20;33.16;101004.53;4947492;27;20174;-60
2023/03/28 04:40:52;;;;;;;4.82;2.63;;;;;;;9.36;34.18;101008.91;4947356;27;20062;-62
2023/03/28 04:43:25;;;;;;;4.07;2.13;;;;;;;9.44;33.70;101009.75;4947433;27;20161;-61
2023/03/28 04:45:56;;;;;;;5.68;2.30;;;;;;;9.43;33.29;101002.78;4947568;27;20051;-61
2023/03/28 04:48:28;;;;;;;8.57;2.30;;;;;;;9.33;33.10;101006.25;4946414;27;20377;-61
2023/03/28 04:50:59;;;;;;;6.57;2.60;;;;;;;9.24;32.60;101017.56;4947670;27;20581;-61
2023/03/28 04:53:30;;;;;;;7.15;2.90;;;;;;;9.19;33.01;101023.66;4947579;27;20052;-58
2023/03/28 04:56:00;;;;;;;7.50;3.17;;;;;;;9.10;30.79;101013.22;4948139;27;20043;-63
2023/03/28 04:58:33;;;;;;;12.82;2.97;;;;;;;8.97;31.55;101004.50;4947644;27;20100;-61
2023/03/28 05:01:04;;;;;;;6.63;3.33;;;;;;;8.87;31.87;101006.22;4941304;28;20041;-62
2023/03/28 05:03:34;;;;;;;5.93;3.22;;;;;;;9.00;32.64;101013.19;4945857;27;20423;-62
2023/03/28 05:06:06;;;;;;;9.75;3.53;;;;;;;8.76;31.89;100961.00;4946334;28;20047;-62
2023/03/28 05:08:37;;;;;;;5.55;2.70;;;;;;;8.99;31.81;101011.47;4946525;27;20063;-62
2023/03/28 05:11:08;;;;;;;4.00;2.50;;;;;;;8.94;33.13;101013.19;4947011;28;20047;-60
2023/03/28 05:13:40;;;;;;;7.60;2.60;;;;;;;8.80;31.16;100996.63;4948692;28;20052;-62
2023/03/28 05:16:11;;;;;;;7.63;3.33;;;;;;;8.88;32.36;101007.94;4945961;28;20036;-61
2023/03/28 05:18:41;;;;;;;11.98;2.58;;;;;;;8.73;30.13;101005.28;4947044;28;20039;-61
2023/03/28 05:21:12;;;;;;;7.68;2.75;;;;;;;8.68;32.12;101009.63;4947150;28;20054;-61
2023/03/28 05:23:43;;;;;;;7.05;3.10;;;;;;;8.77;32.72;100999.25;4944490;28;20469;-61
2023/03/28 05:26:20;;;;;;;5.10;3.10;;;;;;;8.83;32.94;100994.88;4946942;28;20101;-60
2023/03/28 05:28:52;;;;;;;5.90;2.30;;;;;;;9.07;33.62;101003.66;4946736;28;20039;-63
2023/03/28 05:31:24;;;;;;;4.47;2.67;;;;;;;8.99;33.17;101006.25;4944455;28;20572;-61
2023/03/28 05:33:55;;;;;;;5.90;2.70;;;;;;;8.97;33.63;101001.91;4947381;28;20455;-59
2023/03/28 05:36:26;;;;;;;3.50;2.20;;;;;;;8.78;33.80;100959.28;4945505;28;20132;-61
2023/03/28 05:38:57;;;;;;;4.25;2.20;;;;;;;9.18;33.93;100995.81;4946653;28;20051;-62
2023/03/28 05:41:28;;;;;;;3.95;2.38;;;;;;;9.18;32.46;101001.03;4946412;28;20043;-62
2023/03/28 05:44:01;;;;;;;7.55;2.58;;;;;;;9.10;32.65;101002.78;4945932;28;20046;-62
2023/03/28 05:46:31;;;;;;;7.20;3.63;;;;;;;8.93;31.25;100998.38;4947544;28;20052;-62
2023/03/28 05:49:02;;;;;;;3.80;2.40;;;;;;;8.97;33.61;101002.75;4947450;28;20044;-63
2023/03/28 05:51:33;;;;;;;3.15;2.00;;;;;;;8.97;31.22;101001.91;4943327;28;20060;-61
2023/03/28 05:54:03;;;;;;;6.25;2.10;;;;;;;8.81;31.43;101007.06;4954373;28;20058;-61
2023/03/28 05:56:35;;;;;;;4.13;2.30;;;;;;;8.57;32.30;100976.59;4949106;28;20154;-61
2023/03/28 05:59:07;;;;;;;4.45;2.20;;;;;;;8.79;32.32;101008.81;4945581;28;20078;-61
2023/03/28 06:01:38;;;;;;;3.75;2.25;;;;;;;8.79;32.42;101013.16;4948941;27;20131;-62
2023/03/28 06:04:11;;;;;;;5.03;2.30;;;;;;;8.81;33.87;101008.78;4949414;27;20047;-61
2023/03/28 06:06:42;;;;;;;5.47;2.70;;;;;;;8.74;33.26;101020.09;4950310;27;20097;-61
2023/03/28 06:09:12;;;;;;;4.60;2.33;;;;;;;8.60;33.83;101007.84;4949459;27;20092;-60
2023/03/28 06:11:43;;;;;;;4.10;2.35;;;;;;;8.64;33.31;101014.81;4945446;27;20056;-62
2023/03/28 06:14:15;;;;;;;5.03;2.50;;;;;;;8.67;32.96;101018.31;4954576;27;20053;-61
2023/03/28 06:16:48;;;;;;;5.38;2.10;;;;;;;8.66;32.88;101016.56;4950895;27;20479;-61
2023/03/28 06:19:19;;;;;;;6.63;2.40;;;;;;;8.49;31.88;101012.16;4950336;27;20438;-62
2023/03/28 06:21:50;;;;;;;4.03;2.38;;;;;;;7.94;32.31;100946.78;4949309;27;20135;-62
2023/03/28 06:24:22;;;;;;;4.05;2.40;;;;;;;8.40;33.17;101014.72;4950006;27;20405;-61
2023/03/28 06:26:53;;;;;;;13.88;3.17;;;;;;;8.38;32.43;101016.41;4948089;27;20057;-61
2023/03/28 06:29:25;;;;;;;6.05;2.63;;;;;;;8.37;33.83;101019.91;4957098;27;20091;-61
2023/03/28 06:31:55;;;;;;;5.78;2.75;;;;;;;8.32;34.44;101022.47;4950203;27;20488;-62
2023/03/28 06:34:26;;;;;;;7.05;2.47;;;;;;;8.35;33.98;101026.81;4950828;27;20358;-62
2023/03/28 06:36:58;;;;;;;4.65;2.60;;;;;;;8.33;34.75;101025.94;4949306;27;20051;-62
2023/03/28 06:39:29;;;;;;;3.75;2.30;;;;;;;8.30;35.06;101028.53;4948773;27;20039;-61
2023/03/28 06:42:02;;;;;;;5.88;2.67;;;;;;;8.27;34.31;101023.31;4949753;27;20044;-62
2023/03/28 06:44:34;;;;;;;4.90;2.40;;;;;;;8.27;35.26;101028.53;4949335;27;20045;-61
2023/03/28 06:47:05;;;;;;;6.38;3.00;;;;;;;8.32;35.35;101032.03;4950230;27;20559;-62
2023/03/28 06:49:37;;;;;;;7.35;3.03;;;;;;;8.23;35.25;101021.53;4948687;27;20139;-61
2023/03/28 06:52:10;;;;;;;4.97;2.50;;;;;;;8.08;34.81;101031.00;4946728;27;20042;-62
2023/03/28 06:54:40;;;;;;;4.88;2.70;;;;;;;8.06;35.86;101024.91;4948687;27;20047;-60
2023/03/28 06:57:11;;;;;;;3.92;2.58;;;;;;;7.93;35.09;101002.28;4949641;27;20438;-61
2023/03/28 06:59:43;;;;;;;5.15;2.63;;;;;;;7.99;36.18;101016.22;4946610;27;20373;-62
2023/03/28 07:02:15;;;;;;;8.70;2.97;;;;;;;8.04;37.13;101025.75;4938573;27;20049;-61
2023/03/28 07:04:46;;;;;;;6.97;3.28;;;;;;;8.04;36.65;101030.97;4948828;27;20055;-62
2023/03/28 07:07:16;;;;;;;8.35;3.13;;;;;;;7.82;35.24;100998.75;4949673;27;20779;-59
2023/03/28 07:09:48;;;;;;;6.35;3.10;;;;;;;7.76;33.95;101021.28;4949283;27;20130;-62
2023/03/28 07:12:19;;;;;;;9.63;3.08;;;;;;;7.61;33.89;101031.53;4947094;27;20526;-62
2023/03/28 07:14:51;;;;;;;6.60;3.38;;;;;;;7.50;34.70;101028.00;4949124;27;20051;-61
2023/03/28 07:17:21;;;;;;;5.32;2.95;;;;;;;7.43;34.63;101031.38;4947920;27;20055;-62
2023/03/28 07:19:53;;;;;;;5.85;3.15;;;;;;;7.40;33.83;101031.38;4948502;27;20050;-62
2023/03/28 07:22:23;;;;;;;6.28;3.47;;;;;;;7.40;35.43;101032.25;4944323;27;20553;-62
2023/03/28 07:24:54;;;;;;;6.57;3.22;;;;;;;7.30;34.91;101031.28;4952040;27;20452;-62
2023/03/28 07:27:25;;;;;;;7.10;3.58;;;;;;;7.32;35.74;101031.31;4960854;27;20054;-62
2023/03/28 07:29:57;;;;;;;8.85;3.92;;;;;;;7.29;36.44;101029.56;4950137;28;20054;-62
2023/03/28 07:32:27;;;;;;;7.18;3.25;;;;;;;7.24;35.99;101031.22;4947721;28;20421;-61
2023/03/28 07:35:07;;;;;;;;;;;;;;;7.12;35.22;101026.78;4937607;28;20055;-61
2023/03/28 07:37:39;;;;;;;8.35;3.40;;;;;;;7.04;35.21;101032.75;4948766;27;19927;-62
2023/03/28 07:40:11;;;;;;;8.38;3.40;;;;;;;6.80;35.79;101012.59;4952416;27;20051;-62
2023/03/28 07:42:42;;;;;;;9.80;3.40;;;;;;;6.73;35.52;101022.03;4967019;27;20051;-61
2023/03/28 07:45:14;;;;;;;6.20;3.30;;;;;;;6.69;35.96;101036.72;4948401;27;21548;-61
2023/03/28 07:47:44;;;;;;;5.43;3.38;;;;;;;6.69;36.80;101035.84;4937852;27;20059;-62
2023/03/28 07:50:15;;;;;;;7.38;3.15;;;;;;;6.66;36.56;101035.78;4948354;27;20047;-62
2023/03/28 07:52:47;;;;;;;8.13;3.67;;;;;;;6.61;37.65;101035.72;4949148;27;20062;-62
2023/03/28 07:55:18;;;;;;;12.27;4.45;;;;;;;6.58;37.88;101034.84;4947441;27;20051;-62
2023/03/28 07:57:49;;;;;;;8.18;4.18;;;;;;;6.42;38.21;101011.28;4948528;27;20048;-62
2023/03/28 08:00:26;;;;;;;5.72;3.60;;;;;;;6.62;39.17;101034.03;4950185;27;20070;-61
2023/03/28 08:02:58;;;;;;;6.38;3.22;;;;;;;6.47;37.65;101040.75;4937116;27;20051;-62
2023/03/28 08:05:36;;;;;;;6.35;3.42;;;;;;;6.40;37.34;101038.94;4948720;27;20043;-62
2023/03/28 08:08:07;;;;;;;7.25;3.50;;;;;;;6.24;38.34;101036.97;4937576;27;20573;-61
2023/03/28 08:10:55;;;;;;;7.88;3.40;;;;;;;6.18;38.16;101040.38;4947536;27;20044;-62
2023/03/28 08:13:29;;;;;;;5.82;3.28;;;;;;;6.04;39.89;101023.72;4935834;27;20083;-61
2023/03/28 08:16:05;;;;;;;7.57;3.30;;;;;;;6.08;39.30;101046.28;4949597;27;20043;-62
2023/03/28 08:18:38;;;;;;;6.68;3.35;;;;;;;5.94;38.96;101045.19;4935839;27;20451;-61
2023/03/28 08:21:09;;;;;;;7.72;3.88;;;;;;;5.72;38.99;101025.81;4947476;27;20051;-61
2023/03/28 08:23:40;;;;;;;6.93;3.47;;;;;;;5.74;40.72;101044.84;4945483;28;20101;-61
2023/03/28 08:26:14;;;;;;;12.43;3.13;;;;;;;5.66;40.80;101043.88;4947221;27;20047;-62
2023/03/28 08:28:44;;;;;;;7.50;3.58;;;;;;;5.54;40.25;101053.19;4938316;27;21103;-61
2023/03/28 08:31:22;;;;;;;5.95;3.65;;;;;;;5.33;41.03;101037.28;4947624;27;20051;-61
2023/03/28 08:33:53;;;;;;;5.35;3.35;;;;;;;5.07;40.52;101035.09;4947450;27;20058;-61
2023/03/28 08:36:26;;;;;;;10.02;4.30;;;;;;;5.04;40.31;101060.94;4941185;27;20071;-61
2023/03/28 08:38:59;;;;;;;7.68;3.47;;;;;;;4.95;40.89;101071.13;4947332;27;20394;-61
2023/03/28 08:41:52;;;;;;;6.90;3.63;;;;;;;4.80;41.37;101070.81;4947725;27;20051;-61
2023/03/28 08:44:55;;;;;;;7.45;4.32;;;;;;;4.63;41.69;101073.94;4936328;27;20149;-60
2023/03/28 08:47:33;;;;;;;8.07;4.03;;;;;;;4.58;42.27;101079.84;4891878;28;20063;-60
2023/03/28 08:50:15;;;;;;;6.57;4.87;;;;;;;4.45;42.20;101077.00;4936081;27;20075;-61
2023/03/28 08:52:48;;;;;;;12.40;5.32;;;;;;;4.44;43.35;101082.13;4937210;27;20495;-61
2023/03/28 08:55:30;;;;;;;11.50;5.35;;;;;;;4.37;42.45;101080.25;4947878;27;20101;-60
2023/03/28 08:58:05;;;;;;;13.82;7.57;;;;;;;3.82;43.43;101016.13;4939890;28;20072;-61
2023/03/28 09:00:37;;;;;;;12.65;7.03;;;;;;;4.08;43.62;101083.94;4945679;28;20928;-61
2023/03/28 09:03:16;;;;;;;12.75;7.00;;;;;;;4.01;44.46;101094.09;4946658;27;20051;-61
2023/03/28 09:05:51;;;;;;;14.90;8.13;;;;;;;3.61;45.51;101031.97;4936334;27;20428;-60
2023/03/28 09:08:52;;;;;;;11.57;4.57;;;;;;;3.74;46.32;101082.25;4946504;28;20446;-60
2023/03/28 09:11:36;;;;;;;8.18;4.38;;;;;;;3.55;47.85;101080.06;4924660;27;20130;-61
2023/03/28 09:14:30;;;;;;;8.70;4.78;;;;;;;3.60;46.51;101083.66;4920939;28;20055;-61
2023/03/28 09:17:13;;;;;;;10.15;5.20;;;;;;;3.54;46.48;101088.66;4935667;28;20035;-61
2023/03/28 09:20:10;;;;;;;17.98;9.95;;;;;;;3.56;45.32;101071.47;4940942;28;20382;-61
2023/03/28 09:22:49;;;;;;;15.82;8.82;;;;;;;3.71;45.47;101096.81;4935025;28;20177;-62
2023/03/28 09:25:29;;;;;;;11.25;5.55;;;;;;;3.85;46.88;101100.63;4935386;28;20047;-60
2023/03/28 09:28:14;;;;;;;10.18;5.57;;;;;;;3.96;47.91;101108.63;4936311;28;20130;-60
2023/03/28 09:30:48;;;;;;;14.18;5.63;;;;;;;3.71;46.68;101108.03;4936582;28;20055;-60
2023/03/28 09:33:24;;;;;;;10.88;4.88;;;;;;;3.17;47.18;101067.00;4946078;28;20378;-60
2023/03/28 09:35:57;;;;;;;10.15;4.78;;;;;;;3.11;48.25;101097.84;4938632;27;20091;-60
2023/03/28 09:38:36;;;;;;;12.50;5.53;;;;;;;2.99;48.80;101114.75;4950816;27;20055;-61
2023/03/28 09:41:13;;;;;;;12.15;6.53;;;;;;;2.91;48.58;101120.53;4940533;27;20592;-60
2023/03/28 09:43:50;;;;;;;12.57;6.75;;;;;;;2.81;48.18;101120.25;4946675;27;20564;-60
2023/03/28 09:46:25;;;;;;;10.85;5.50;;;;;;;2.64;49.43;101121.47;4951306;27;20052;-60
2023/03/28 09:48:59;;;;;;;13.52;6.78;;;;;;;2.58;49.75;101127.34;4940202;27;20734;-60
2023/03/28 09:51:34;;;;;;;14.38;7.40;;;;;;;2.18;49.22;101070.22;4950445;27;20138;-60
2023/03/28 09:54:24;;;;;;;18.52;9.35;;;;;;;2.45;50.03;101117.47;4891376;27;20096;-60
2023/03/28 09:57:01;;;;;;;26.40;13.77;;;;;;;2.48;49.37;101125.31;4939464;27;20066;-60
2023/03/28 09:59:34;;;;;;;13.98;6.97;;;;;;;2.56;50.51;101118.66;4950837;27;20352;-60
2023/03/28 10:02:05;;;;;;;14.60;6.68;;;;;;;2.71;49.44;101113.09;4941067;27;20055;-60
2023/03/28 10:04:38;;;;;;;15.65;6.70;;;;;;;2.95;48.25;101125.81;4950371;27;20055;-60
2023/03/28 10:07:31;;;;;;;16.13;7.20;;;;;;;3.11;47.61;101123.66;4950699;27;20052;-60
2023/03/28 10:10:20;;;;;;;17.83;8.57;;;;;;;3.23;46.82;101129.19;4939003;27;20120;-60
2023/03/28 10:12:59;;;;;;;21.13;8.50;;;;;;;3.24;46.36;101126.66;4933098;27;20155;-60
2023/03/28 10:15:36;;;;;;;19.88;7.68;;;;;;;3.29;46.49;101134.50;4950777;27;20126;-60
2023/03/28 10:18:06;;;;;;;16.25;7.93;;;;;;;3.31;45.84;101132.84;4939394;27;20048;-60
2023/03/28 10:20:41;;;;;;;14.95;7.50;;;;;;;3.22;45.44;101117.97;4949600;27;20619;-60
2023/03/28 10:23:15;;;;;;;13.30;6.50;;;;;;;3.34;45.21;101148.41;4949732;27;20051;-63
2023/03/28 10:25:50;;;;;;;14.02;7.35;;;;;;;3.29;45.39;101144.81;4940190;27;20470;-60
2023/03/28 10:28:30;;;;;;;22.20;6.90;;;;;;;3.29;45.24;101138.78;4950017;27;20089;-60
2023/03/28 10:31:03;;;;;;;13.43;6.68;;;;;;;3.25;45.43;101148.19;4938179;27;20079;-60
2023/03/28 10:33:34;;;;;;;16.23;6.80;;;;;;;3.01;45.80;101113.06;4944206;27;20061;-60
2023/03/28 10:36:11;;;;;;;19.08;6.35;;;;;;;3.28;45.79;101158.59;4951017;27;20203;-60
2023/03/28 10:38:49;;;;;;;14.65;6.15;;;;;;;3.21;45.40;101151.50;4955317;27;20051;-63
2023/03/28 10:41:22;;;;;;;19.67;6.85;;;;;;;2.90;45.89;101135.16;4939904;27;20130;-61
2023/03/28 10:43:58;;;;;;;16.35;6.10;;;;;;;2.97;46.50;101157.72;4943730;27;20053;-61
2023/03/28 10:46:39;;;;;;;11.93;6.18;;;;;;;2.94;45.92;101169.66;4937489;27;20058;-60
2023/03/28 10:49:15;;;;;;;36.10;15.52;;;;;;;2.90;47.46;101176.47;4949775;27;20083;-61
2023/03/28 10:51:51;;;;;;;21.58;8.75;;;;;;;2.75;47.83;101176.00;4938957;27;20062;-61
2023/03/28 10:54:48;;;;;;;55.17;21.73;;;;;;;2.72;47.73;101170.72;4949319;27;20051;-60
2023/03/28 10:57:26;;;;;;;18.30;8.20;;;;;;;2.71;48.04;101181.88;4938598;27;20067;-61
2023/03/28 11:00:07;;;;;;;15.98;6.75;;;;;;;2.65;47.78;101190.34;4938342;27;20472;-60
2023/03/28 11:02:54;;;;;;;17.05;7.07;;;;;;;2.43;48.38;101172.44;4936805;27;20330;-61
2023/03/28 11:05:41;;;;;;;13.77;6.75;;;;;;;2.56;48.77;101190.91;4936082;27;20491;-60
2023/03/28 11:08:37;;;;;;;13.98;6.18;;;;;;;2.59;48.99;101193.56;4954732;27;20061;-62
2023/03/28 11:11:31;;;;;;;18.02;6.60;;;;;;;2.54;48.79;101186.53;4941400;27;20473;-61
2023/03/28 11:14:17;;;;;;;15.57;6.65;;;;;;;2.49;49.07;101188.97;4937875;28;20490;-60
2023/03/28 11:16:57;;;;;;;12.68;6.10;;;;;;;2.60;48.97;101194.47;4939659;28;20043;-60
2023/03/28 11:19:53;;;;;;;13.82;5.90;;;;;;;2.58;49.24;101197.00;4939951;28;20055;-60
2023/03/28 11:22:36;;;;;;;11.50;5.50;;;;;;;2.59;49.60;101190.13;4932056;28;20229;-61
2023/03/28 11:25:21;;;;;;;11.50;5.78;;;;;;;2.62;49.79;101195.41;4937073;28;20077;-61
2023/03/28 11:28:06;;;;;;;16.05;6.32;;;;;;;2.62;49.60;101197.09;4936556;28;20090;-60
2023/03/28 11:30:38;;;;;;;13.15;5.38;;;;;;;2.57;49.67;101197.84;4936780;28;20055;-60
2023/03/28 11:33:17;;;;;;;9.23;4.80;;;;;;;2.65;49.96;101190.34;4946559;27;20147;-61
2023/03/28 11:35:51;;;;;;;12.02;5.60;;;;;;;2.67;50.07;101203.25;4937642;27;20131;-61
2023/03/28 11:38:25;;;;;;;13.55;5.70;;;;;;;2.62;50.14;101199.66;4947961;27;20046;-60
2023/03/28 11:41:00;;;;;;;15.63;5.53;;;;;;;2.19;50.43;101126.13;4936238;27;20123;-60
2023/03/28 11:43:37;;;;;;;11.82;5.82;;;;;;;2.60;50.69;101186.75;4948052;28;20095;-61
2023/03/28 11:46:12;;;;;;;10.20;5.80;;;;;;;2.70;50.83;101199.09;4932932;28;20134;-60
2023/03/28 11:48:49;;;;;;;12.70;5.47;;;;;;;2.70;51.07;101199.09;4943801;28;20241;-61
2023/03/28 11:51:27;;;;;;;11.52;5.50;;;;;;;2.56;51.27;101180.59;4932386;28;20051;-61
2023/03/28 11:54:05;;;;;;;14.63;5.90;;;;;;;2.55;51.47;101178.84;4932761;28;20048;-60
2023/03/28 11:56:47;;;;;;;11.38;5.28;;;;;;;2.68;51.75;101198.16;4936803;27;20061;-61
2023/03/28 11:59:24;;;;;;;9.15;5.00;;;;;;;2.62;51.83;101190.25;4948214;27;20051;-61
2023/03/28 12:01:59;;;;;;;13.27;5.57;;;;;;;2.62;51.76;101189.34;4936929;27;20416;-60
2023/03/28 12:04:36;;;;;;;16.23;5.30;;;;;;;2.63;52.10;101180.78;4947468;28;20042;-60